Time;durP1;ratioP1;P1;durP2;ratioP2;P2;SDS_P1;SDS_P2;PMS_P1;PMS_P2;Temp;Humidity;BMP_temperature;BMP_pressure;BME280_temperature;BME280_humidity;BME280_pressure;Samples;Min_cycle;Max_cycle;Signal;HPM_P1;HPM_P2
2023/07/08 00:00:52;;;;;;;6.65;4.28;;;;;;;20.69;59.75;100844.75;5109718;27;20019;-74
2023/07/08 00:03:19;;;;;;;7.18;4.40;;;;;;;20.64;59.94;100854.50;5119320;27;20031;-73
2023/07/08 00:05:47;;;;;;;9.05;4.60;;;;;;;20.41;60.19;100821.84;5116563;27;21371;-75
2023/07/08 00:08:17;;;;;;;6.53;4.20;;;;;;;20.54;60.46;100853.94;5113525;27;20541;-74
2023/07/08 00:10:42;;;;;;;6.68;4.35;;;;;;;20.49;60.97;100857.22;5121164;27;20135;-74
2023/07/08 00:13:08;;;;;;;9.38;3.92;;;;;;;20.26;61.13;100821.00;5114103;27;20396;-74
2023/07/08 00:15:34;;;;;;;5.28;4.15;;;;;;;20.27;61.35;100819.09;5116188;27;20034;-73
2023/07/08 00:18:00;;;;;;;6.47;4.28;;;;;;;20.37;61.41;100845.06;5117101;27;20027;-74
2023/07/08 00:20:32;;;;;;;5.70;4.07;;;;;;;20.34;61.50;100842.69;5118180;27;20034;-73
2023/07/08 00:23:01;;;;;;;8.48;4.68;;;;;;;20.30;61.45;100846.84;5123192;27;20030;-73
2023/07/08 00:25:27;;;;;;;7.53;4.10;;;;;;;20.27;61.79;100851.78;5123150;27;20062;-73
2023/07/08 00:27:52;;;;;;;9.27;4.28;;;;;;;20.16;61.87;100843.03;5117635;27;20402;-74
2023/07/08 00:30:19;;;;;;;12.73;5.10;;;;;;;20.06;62.58;100828.78;5115380;27;20032;-73
2023/07/08 00:32:45;;;;;;;6.47;4.22;;;;;;;20.12;62.75;100843.63;5114776;27;20035;-74
2023/07/08 00:35:10;;;;;;;8.88;4.88;;;;;;;20.08;63.07;100843.09;5116297;27;20019;-74
2023/07/08 00:37:36;;;;;;;7.07;4.00;;;;;;;20.11;63.44;100853.66;5117407;27;20480;-74
2023/07/08 00:40:11;;;;;;;8.55;4.50;;;;;;;20.08;63.36;100847.69;5120060;27;20358;-73
2023/07/08 00:42:38;;;;;;;8.52;4.70;;;;;;;19.98;63.68;100834.31;5111202;27;20032;-74
2023/07/08 00:45:18;;;;;;;8.60;4.85;;;;;;;19.93;63.47;100828.56;5113958;27;20043;-74
2023/07/08 00:47:44;;;;;;;8.75;4.38;;;;;;;20.01;63.61;100849.44;5117646;27;20028;-73
2023/07/08 00:50:11;;;;;;;9.13;4.70;;;;;;;19.89;63.58;100831.81;5119990;27;20030;-73
2023/07/08 00:52:37;;;;;;;9.70;4.45;;;;;;;19.86;63.76;100834.91;5115350;27;20023;-73
2023/07/08 00:55:08;;;;;;;6.43;4.40;;;;;;;19.85;63.90;100836.81;5112303;27;20097;-75
2023/07/08 00:57:38;;;;;;;7.65;4.43;;;;;;;19.85;64.05;100847.69;5119712;27;20037;-74
2023/07/08 01:00:08;;;;;;;6.50;4.13;;;;;;;19.86;64.26;100845.81;5114844;27;20118;-74
2023/07/08 01:02:41;;;;;;;8.63;5.07;;;;;;;19.84;64.48;100850.59;5113745;27;20024;-74
2023/07/08 01:05:11;;;;;;;8.90;5.15;;;;;;;19.81;64.48;100851.81;5113164;27;20088;-74
2023/07/08 01:07:40;;;;;;;9.05;4.63;;;;;;;19.78;64.65;100857.63;5110387;27;20969;-74
2023/07/08 01:10:12;;;;;;;10.18;4.50;;;;;;;19.46;64.99;100792.53;5121926;27;20513;-74
2023/07/08 01:12:45;;;;;;;8.85;4.70;;;;;;;19.50;65.25;100810.16;5108909;27;20020;-73
2023/07/08 01:15:10;;;;;;;11.40;4.90;;;;;;;19.50;65.74;100818.34;5119258;27;20113;-73
2023/07/08 01:17:40;;;;;;;8.10;4.35;;;;;;;19.40;66.06;100808.69;5118211;27;20101;-74
2023/07/08 01:20:06;;;;;;;7.72;4.22;;;;;;;19.61;66.05;100850.56;5116336;27;20040;-74
2023/07/08 01:22:35;;;;;;;9.75;4.80;;;;;;;19.41;66.34;100822.13;5117179;27;20062;-73
2023/07/08 01:25:03;;;;;;;8.40;4.78;;;;;;;19.36;66.51;100827.28;5117105;27;20075;-74
2023/07/08 01:27:30;;;;;;;7.15;5.15;;;;;;;19.21;67.07;100811.84;5120294;27;20027;-74
2023/07/08 01:29:56;;;;;;;8.90;5.00;;;;;;;19.22;67.36;100824.44;5120750;27;20051;-74
2023/07/08 01:32:21;;;;;;;8.57;4.85;;;;;;;19.31;67.89;100854.16;5121426;27;20038;-74
2023/07/08 01:34:59;;;;;;;10.63;4.82;;;;;;;19.38;67.59;100859.75;5115783;27;20422;-74
2023/07/08 01:37:37;;;;;;;8.20;5.00;;;;;;;19.34;67.90;100859.25;5118492;27;20402;-75
2023/07/08 01:40:26;;;;;;;7.97;4.57;;;;;;;19.32;68.09;100861.28;5114651;27;20019;-74
2023/07/08 01:42:52;;;;;;;6.75;4.82;;;;;;;19.18;68.36;100834.81;5113882;27;20031;-73
2023/07/08 01:45:21;;;;;;;6.45;4.07;;;;;;;19.20;68.64;100845.50;5111431;27;20042;-73
2023/07/08 01:47:51;;;;;;;6.00;4.45;;;;;;;19.23;69.09;100851.44;5112965;27;20030;-74
2023/07/08 01:50:17;;;;;;;8.43;4.85;;;;;;;19.21;68.90;100853.50;5116700;27;20023;-74
2023/07/08 01:52:43;;;;;;;5.53;4.65;;;;;;;19.11;69.47;100841.97;5111445;28;20080;-74
2023/07/08 01:55:08;;;;;;;8.15;4.82;;;;;;;18.99;69.48;100818.09;5111227;27;20147;-74
2023/07/08 01:57:34;;;;;;;7.57;4.57;;;;;;;19.01;69.92;100824.16;5117211;27;20055;-74
2023/07/08 01:59:59;;;;;;;12.00;5.43;;;;;;;19.09;70.23;100846.72;5124048;27;20076;-75
2023/07/08 02:02:25;;;;;;;10.15;5.38;;;;;;;19.03;70.44;100839.31;5121535;27;20114;-74
2023/07/08 02:04:50;;;;;;;15.43;5.38;;;;;;;18.96;70.39;100832.84;5115465;27;20023;-74
2023/07/08 02:07:16;;;;;;;7.53;4.85;;;;;;;18.92;70.52;100826.06;5118862;28;20027;-74
2023/07/08 02:09:41;;;;;;;9.57;4.97;;;;;;;18.96;71.01;100849.16;5117995;27;20047;-74
2023/07/08 02:12:07;;;;;;;8.80;4.95;;;;;;;18.78;71.47;100818.66;5115025;28;20401;-74
2023/07/08 02:14:32;;;;;;;7.40;4.80;;;;;;;18.88;71.52;100846.50;5123802;27;20079;-74
2023/07/08 02:16:58;;;;;;;10.93;5.50;;;;;;;18.76;71.75;100839.72;5119354;28;20059;-74
2023/07/08 02:19:24;;;;;;;8.93;4.88;;;;;;;18.73;71.92;100841.97;5120780;27;20019;-74
2023/07/08 02:21:51;;;;;;;7.72;5.18;;;;;;;18.70;72.31;100839.59;5120599;27;20818;-73
2023/07/08 02:24:17;;;;;;;7.07;4.90;;;;;;;18.72;72.59;100851.13;5116005;27;20563;-74
2023/07/08 02:26:43;;;;;;;7.03;4.88;;;;;;;18.73;72.67;100860.97;5127883;27;20023;-74
2023/07/08 02:29:08;;;;;;;8.43;4.78;;;;;;;18.63;73.48;100852.19;5120618;27;20034;-75
2023/07/08 02:31:34;;;;;;;10.57;4.82;;;;;;;18.59;73.73;100845.38;5117873;27;20024;-73
2023/07/08 02:34:05;;;;;;;9.85;4.93;;;;;;;18.60;73.64;100849.81;5120345;27;20361;-73
2023/07/08 02:36:33;;;;;;;5.72;5.03;;;;;;;18.52;73.73;100834.38;5120612;27;20027;-75
2023/07/08 02:38:59;;;;;;;11.07;5.35;;;;;;;18.38;74.02;100821.47;5120209;27;20027;-74
2023/07/08 02:41:24;;;;;;;10.13;5.43;;;;;;;18.41;73.87;100828.44;5120677;27;20028;-74
2023/07/08 02:43:58;;;;;;;11.52;5.45;;;;;;;18.35;73.86;100832.66;5121007;27;20415;-74
2023/07/08 02:46:23;;;;;;;;;;;;;;;18.45;74.34;100844.22;5127847;27;20031;-75
2023/07/08 02:48:49;;;;;;;9.95;4.70;;;;;;;18.28;74.78;100826.19;5114790;27;20604;-74
2023/07/08 02:51:14;;;;;;;10.70;5.07;;;;;;;18.40;74.85;100853.88;5128014;27;20062;-76
2023/07/08 02:53:40;;;;;;;9.25;4.95;;;;;;;18.23;75.02;100827.75;5120069;27;20018;-74
2023/07/08 02:56:05;;;;;;;9.32;5.18;;;;;;;18.24;75.36;100838.44;5115441;27;20497;-74
2023/07/08 02:58:31;;;;;;;10.80;5.53;;;;;;;18.05;75.10;100812.50;5119040;27;20031;-74
2023/07/08 03:01:00;;;;;;;11.30;5.50;;;;;;;18.16;75.09;100845.75;5120956;27;20146;-75
2023/07/08 03:03:28;;;;;;;8.48;5.40;;;;;;;18.17;75.54;100850.16;5122284;27;20019;-73
2023/07/08 03:05:59;;;;;;;7.85;5.18;;;;;;;18.23;75.94;100858.47;5112430;27;20048;-74
2023/07/08 03:08:26;;;;;;;14.77;5.47;;;;;;;18.18;75.92;100862.72;5118520;27;20054;-74
2023/07/08 03:11:00;;;;;;;11.70;5.35;;;;;;;18.01;76.29;100840.16;5129046;27;20632;-74
2023/07/08 03:13:27;;;;;;;14.38;5.88;;;;;;;18.04;76.82;100856.09;5114546;27;20027;-74
2023/07/08 03:15:54;;;;;;;10.68;5.07;;;;;;;17.86;76.54;100829.13;5117499;27;20036;-74
2023/07/08 03:18:21;;;;;;;13.52;5.22;;;;;;;18.10;77.05;100871.72;5127903;27;20019;-74
2023/07/08 03:20:48;;;;;;;16.27;5.78;;;;;;;17.90;77.18;100838.59;5117681;27;20516;-74
2023/07/08 03:23:13;;;;;;;15.68;6.00;;;;;;;18.06;77.39;100862.22;5121315;27;20027;-75
2023/07/08 03:25:39;;;;;;;18.05;5.95;;;;;;;17.79;77.71;100827.25;5129172;27;20168;-73
2023/07/08 03:28:06;;;;;;;14.35;6.05;;;;;;;17.71;78.73;100819.09;5115298;27;20078;-74
2023/07/08 03:30:33;;;;;;;14.35;5.70;;;;;;;17.81;78.47;100846.94;5119959;27;20027;-74
2023/07/08 03:32:59;;;;;;;11.18;5.20;;;;;;;17.96;78.51;100875.09;5121719;27;20035;-73
2023/07/08 03:35:25;;;;;;;13.93;5.47;;;;;;;17.95;78.63;100873.38;5125621;27;20038;-74
2023/07/08 03:37:51;;;;;;;11.50;6.07;;;;;;;17.92;79.13;100868.28;5117102;27;20016;-74
2023/07/08 03:40:17;;;;;;;10.77;5.93;;;;;;;17.86;78.76;100858.09;5126511;27;20111;-74
2023/07/08 03:42:42;;;;;;;11.07;5.60;;;;;;;17.89;78.77;100868.63;5125832;27;20591;-75
2023/07/08 03:45:08;;;;;;;11.75;5.88;;;;;;;17.92;78.73;100865.56;5115266;27;20081;-74
2023/07/08 03:47:34;;;;;;;8.13;5.97;;;;;;;17.80;78.74;100847.94;5117742;27;20484;-75
2023/07/08 03:49:59;;;;;;;9.57;4.85;;;;;;;18.08;78.55;100876.44;5122085;27;20135;-73
2023/07/08 03:52:25;;;;;;;7.43;5.18;;;;;;;18.03;78.49;100867.97;5125414;27;20027;-73
2023/07/08 03:54:50;;;;;;;11.05;5.47;;;;;;;18.10;78.06;100867.09;5118697;27;20031;-75
2023/07/08 03:57:16;;;;;;;10.27;5.88;;;;;;;18.10;77.71;100850.81;5159625;27;20031;-74
2023/07/08 03:59:41;;;;;;;8.13;5.32;;;;;;;18.26;77.15;100860.00;5124695;27;20031;-75
2023/07/08 04:02:11;;;;;;;9.73;5.70;;;;;;;18.33;75.95;100855.56;5122982;27;20036;-75
2023/07/08 04:04:37;;;;;;;12.45;5.25;;;;;;;18.55;74.20;100872.06;5120126;27;20027;-73
2023/07/08 04:07:04;;;;;;;11.43;5.40;;;;;;;18.74;74.09;100892.56;5115062;27;20472;-75
2023/07/08 04:09:30;;;;;;;10.60;5.32;;;;;;;18.71;73.85;100885.63;5115650;27;20049;-74
2023/07/08 04:11:55;;;;;;;8.20;4.68;;;;;;;18.85;73.67;100897.63;5121210;27;20031;-74
2023/07/08 04:14:21;;;;;;;9.23;5.88;;;;;;;18.82;73.28;100876.22;5118986;27;20113;-74
2023/07/08 04:16:58;;;;;;;7.20;4.95;;;;;;;19.03;72.73;100899.13;5112909;27;20042;-75
2023/07/08 04:19:26;;;;;;;13.65;5.35;;;;;;;19.11;72.68;100895.50;5124099;27;20027;-74
2023/07/08 04:21:52;;;;;;;11.88;5.70;;;;;;;19.22;72.05;100895.97;5120031;27;20417;-74
2023/07/08 04:24:18;;;;;;;11.02;5.85;;;;;;;19.32;71.65;100898.53;5116981;27;20055;-73
2023/07/08 04:26:46;;;;;;;10.13;5.78;;;;;;;19.23;71.43;100861.47;5121293;27;20072;-73
2023/07/08 04:29:13;;;;;;;8.05;5.85;;;;;;;19.45;71.01;100888.75;5121216;27;20030;-75
2023/07/08 04:31:39;;;;;;;6.53;4.97;;;;;;;19.65;70.54;100900.91;5123154;27;20060;-74
2023/07/08 04:34:06;;;;;;;13.68;6.13;;;;;;;19.70;69.61;100873.16;5117060;27;20532;-74
2023/07/08 04:36:32;;;;;;;11.55;6.60;;;;;;;19.79;69.20;100864.75;5118271;27;20023;-74
2023/07/08 04:38:58;;;;;;;12.10;5.63;;;;;;;20.11;68.57;100894.50;5120773;27;20403;-74
2023/07/08 04:41:26;;;;;;;11.70;5.60;;;;;;;20.24;67.79;100883.00;5118778;27;20117;-74
2023/07/08 04:43:53;;;;;;;9.88;5.10;;;;;;;20.35;66.87;100868.94;5151407;27;20031;-74
2023/07/08 04:46:36;;;;;;;8.02;4.80;;;;;;;20.60;66.35;100891.38;5114360;27;20390;-73
2023/07/08 04:49:03;;;;;;;7.20;5.32;;;;;;;20.69;66.20;100895.69;5119413;27;20502;-74
2023/07/08 04:51:29;;;;;;;7.35;4.70;;;;;;;20.81;66.00;100899.66;5120601;27;20027;-74
2023/07/08 04:53:57;;;;;;;15.40;5.38;;;;;;;20.91;65.66;100905.69;5111335;27;20031;-74
2023/07/08 04:56:35;;;;;;;9.95;4.72;;;;;;;20.87;64.96;100877.09;5115122;27;20051;-73
2023/07/08 04:59:01;;;;;;;6.97;4.78;;;;;;;20.95;64.14;100879.75;5116153;27;20113;-75
2023/07/08 05:01:27;;;;;;;9.45;4.07;;;;;;;21.26;63.81;100905.81;5116982;27;20533;-74
2023/07/08 05:03:53;;;;;;;7.72;4.40;;;;;;;21.35;62.67;100892.94;5116735;27;20493;-74
2023/07/08 05:06:18;;;;;;;7.45;4.13;;;;;;;21.52;61.96;100894.41;5117078;27;20062;-74
2023/07/08 05:08:43;;;;;;;5.93;4.32;;;;;;;21.59;61.24;100881.66;5115130;27;20031;-74
2023/07/08 05:11:09;;;;;;;6.53;4.55;;;;;;;21.77;60.34;100884.88;5124423;27;20051;-74
2023/07/08 05:13:37;;;;;;;6.53;4.57;;;;;;;21.92;59.55;100885.66;5119037;27;20028;-74
2023/07/08 05:16:06;;;;;;;7.38;4.35;;;;;;;22.03;58.92;100896.91;5119689;27;20070;-74
2023/07/08 05:18:31;;;;;;;7.78;4.72;;;;;;;22.20;58.80;100913.91;5120384;27;20507;-72
2023/07/08 05:20:57;;;;;;;6.18;4.18;;;;;;;22.04;58.28;100874.03;5125728;27;20023;-74
2023/07/08 05:23:24;;;;;;;9.02;4.63;;;;;;;22.12;58.16;100879.34;5114949;27;20035;-73
2023/07/08 05:25:49;;;;;;;6.45;3.58;;;;;;;22.38;58.17;100913.44;5119160;27;20042;-74
2023/07/08 05:28:15;;;;;;;6.07;4.35;;;;;;;22.26;57.31;100877.59;5119956;27;20069;-74
2023/07/08 05:30:41;;;;;;;9.30;4.43;;;;;;;22.55;56.79;100910.28;5121113;27;20027;-73
2023/07/08 05:33:07;;;;;;;7.57;3.70;;;;;;;22.50;56.40;100899.06;5117078;27;20035;-73
2023/07/08 05:35:33;;;;;;;6.45;4.10;;;;;;;22.64;56.38;100909.09;5110317;27;20030;-74
2023/07/08 05:37:59;;;;;;;6.25;3.80;;;;;;;22.64;56.11;100900.03;5115666;27;20019;-74
2023/07/08 05:40:26;;;;;;;5.05;3.65;;;;;;;22.75;55.55;100894.00;5113360;27;20024;-74
2023/07/08 05:42:52;;;;;;;9.50;4.07;;;;;;;22.88;55.54;100894.09;5114456;27;20055;-74
2023/07/08 05:45:17;;;;;;;6.13;3.95;;;;;;;22.93;55.36;100891.63;5120077;27;20062;-74
2023/07/08 05:47:42;;;;;;;6.93;3.75;;;;;;;23.06;55.40;100900.78;5120164;27;20122;-74
2023/07/08 05:50:08;;;;;;;4.72;3.08;;;;;;;23.40;54.52;100930.03;5121279;27;20483;-73
2023/07/08 05:52:34;;;;;;;5.40;4.32;;;;;;;23.39;54.78;100912.78;5118856;27;20032;-74
2023/07/08 05:54:59;;;;;;;7.50;4.03;;;;;;;23.47;54.53;100893.41;5119103;27;20382;-74
2023/07/08 05:57:25;;;;;;;7.43;4.15;;;;;;;23.70;53.84;100904.06;5118736;27;20027;-74
2023/07/08 05:59:51;;;;;;;8.93;3.95;;;;;;;23.84;53.88;100917.59;5112176;27;20049;-74
2023/07/08 06:02:17;;;;;;;6.07;3.38;;;;;;;23.89;53.58;100897.81;5110270;27;20039;-73
2023/07/08 06:04:42;;;;;;;6.45;3.65;;;;;;;24.21;53.35;100918.97;5123917;27;20038;-74
2023/07/08 06:07:08;;;;;;;6.97;4.00;;;;;;;24.36;53.15;100920.50;5109666;27;20469;-74
2023/07/08 06:09:34;;;;;;;6.03;3.60;;;;;;;24.55;53.23;100917.97;5114496;27;20122;-73
2023/07/08 06:11:59;;;;;;;6.85;3.67;;;;;;;24.57;52.69;100899.41;5120208;28;20027;-73
2023/07/08 06:14:24;;;;;;;7.18;3.20;;;;;;;24.66;51.73;100882.53;5118272;27;20024;-72
2023/07/08 06:16:50;;;;;;;6.40;3.72;;;;;;;24.90;51.08;100909.34;5124859;27;20083;-74
2023/07/08 06:19:17;;;;;;;7.55;4.07;;;;;;;25.01;49.59;100891.34;5121176;27;20031;-74
2023/07/08 06:21:43;;;;;;;5.03;3.35;;;;;;;25.32;48.70;100913.50;5120626;28;20456;-74
2023/07/08 06:24:09;;;;;;;8.10;3.70;;;;;;;25.38;49.04;100909.91;5115664;28;20028;-74
2023/07/08 06:26:34;;;;;;;10.10;3.55;;;;;;;25.35;48.47;100880.13;5123879;27;20034;-73
2023/07/08 06:29:00;;;;;;;7.32;3.25;;;;;;;25.61;47.71;100902.84;5111886;27;20078;-73
2023/07/08 06:31:25;;;;;;;3.42;2.90;;;;;;;25.62;46.87;100890.78;5113489;28;20035;-73
2023/07/08 06:33:51;;;;;;;3.75;3.05;;;;;;;25.73;45.91;100897.50;5118377;28;20132;-73
2023/07/08 06:36:16;;;;;;;4.85;2.97;;;;;;;25.96;44.77;100917.88;5120368;28;20080;-73
2023/07/08 06:38:42;;;;;;;3.97;3.00;;;;;;;25.96;44.91;100900.53;5118796;27;20352;-74
2023/07/08 06:41:07;;;;;;;5.22;2.80;;;;;;;26.15;44.99;100921.63;5118400;28;20447;-73
2023/07/08 06:43:32;;;;;;;8.23;3.38;;;;;;;26.17;44.89;100906.56;5116047;27;20114;-73
2023/07/08 06:45:58;;;;;;;6.75;3.38;;;;;;;26.25;44.41;100891.72;5118578;27;20050;-73
2023/07/08 06:48:24;;;;;;;8.85;3.85;;;;;;;26.50;44.63;100922.81;5113947;28;20031;-73
2023/07/08 06:50:49;;;;;;;4.82;3.20;;;;;;;26.54;44.46;100913.91;5118266;27;20028;-73
2023/07/08 06:53:15;;;;;;;4.20;3.13;;;;;;;26.66;43.65;100915.97;5116384;28;20787;-73
2023/07/08 06:55:44;;;;;;;4.65;3.08;;;;;;;26.67;43.40;100890.13;5114841;27;20484;-73
2023/07/08 06:58:09;;;;;;;5.88;2.80;;;;;;;26.94;42.53;100919.94;5118172;27;20035;-74
2023/07/08 07:00:35;;;;;;;10.68;3.45;;;;;;;26.93;41.77;100887.13;5118886;28;20020;-73
2023/07/08 07:03:00;;;;;;;5.90;3.50;;;;;;;27.12;41.41;100917.25;5121562;28;20031;-74
2023/07/08 07:05:26;;;;;;;4.35;3.05;;;;;;;27.06;41.46;100898.00;5119414;27;20035;-73
2023/07/08 07:07:52;;;;;;;7.35;3.83;;;;;;;27.19;41.90;100909.75;5113857;28;20073;-73
2023/07/08 07:10:19;;;;;;;6.85;3.33;;;;;;;27.32;41.83;100920.66;5116431;28;20092;-73
2023/07/08 07:12:44;;;;;;;5.20;2.92;;;;;;;27.29;39.92;100890.81;5109438;28;20027;-73
2023/07/08 07:15:10;;;;;;;4.25;3.28;;;;;;;27.33;40.42;100903.03;5119163;28;20477;-73
2023/07/08 07:17:35;;;;;;;8.23;3.25;;;;;;;27.49;40.73;100924.47;5112584;27;20028;-73
2023/07/08 07:20:02;;;;;;;4.65;3.28;;;;;;;27.48;40.41;100902.66;5119750;27;20035;-73
2023/07/08 07:22:28;;;;;;;3.88;3.00;;;;;;;27.53;40.57;100908.34;5119876;27;20039;-73
2023/07/08 07:24:54;;;;;;;5.80;3.22;;;;;;;27.69;40.42;100911.28;5115565;27;20027;-73
2023/07/08 07:27:19;;;;;;;2.63;2.17;;;;;;;27.75;39.38;100904.84;5117450;27;20500;-73
2023/07/08 07:29:50;;;;;;;6.13;3.58;;;;;;;27.80;39.62;100909.69;5147618;27;20491;-73
2023/07/08 07:32:17;;;;;;;7.70;3.60;;;;;;;27.76;39.96;100891.91;5118926;27;20034;-73
2023/07/08 07:34:46;;;;;;;10.20;2.55;;;;;;;27.97;39.57;100919.88;5123230;27;20042;-74
2023/07/08 07:37:14;;;;;;;4.35;2.90;;;;;;;28.01;39.50;100911.94;5119563;27;20112;-74
2023/07/08 07:39:40;;;;;;;4.28;2.55;;;;;;;28.12;39.09;100916.69;5124295;27;20106;-73
2023/07/08 07:42:06;;;;;;;5.63;3.13;;;;;;;28.07;38.94;100902.75;5114683;27;20036;-73
2023/07/08 07:44:32;;;;;;;3.13;2.60;;;;;;;28.03;38.81;100883.06;5121900;27;20034;-73
2023/07/08 07:46:57;;;;;;;6.15;2.80;;;;;;;28.08;39.02;100885.13;5122632;27;20050;-74
2023/07/08 07:49:23;;;;;;;7.05;2.90;;;;;;;28.18;38.32;100901.97;5120986;27;20043;-72
2023/07/08 07:51:48;;;;;;;6.28;3.22;;;;;;;28.20;38.38;100925.47;5119355;27;20034;-73
2023/07/08 07:54:14;;;;;;;6.22;3.45;;;;;;;28.26;38.36;100905.22;5119051;27;20039;-73
2023/07/08 07:56:39;;;;;;;5.90;2.70;;;;;;;28.36;37.64;100905.47;5118985;27;20031;-74
2023/07/08 07:59:05;;;;;;;3.60;2.85;;;;;;;28.42;37.99;100899.03;5124885;27;20023;-72
2023/07/08 08:01:31;;;;;;;4.07;3.05;;;;;;;28.41;38.11;100894.56;5120933;27;20015;-73
2023/07/08 08:03:56;;;;;;;8.02;2.70;;;;;;;28.50;37.93;100901.47;5117855;27;20031;-73
2023/07/08 08:06:22;;;;;;;5.50;3.10;;;;;;;28.39;37.92;100893.97;5124041;27;20018;-74
2023/07/08 08:08:49;;;;;;;5.90;3.20;;;;;;;28.40;38.02;100901.16;5121554;27;20019;-74
2023/07/08 08:11:15;;;;;;;5.88;2.88;;;;;;;28.47;38.06;100898.34;5124682;27;20027;-72
2023/07/08 08:13:40;;;;;;;2.90;2.35;;;;;;;28.42;37.79;100874.19;5122693;27;20079;-73
2023/07/08 08:16:06;;;;;;;6.97;3.30;;;;;;;28.49;37.58;100877.69;5118970;27;20027;-74
2023/07/08 08:18:31;;;;;;;3.92;2.78;;;;;;;28.60;36.86;100900.91;5121725;27;20034;-74
2023/07/08 08:20:59;;;;;;;5.57;3.10;;;;;;;28.54;36.89;100894.38;5121360;27;20029;-73
2023/07/08 08:23:25;;;;;;;3.55;2.80;;;;;;;28.49;36.61;100879.63;5120501;27;20437;-73
2023/07/08 08:25:51;;;;;;;3.33;2.55;;;;;;;28.60;36.65;100889.84;5121528;27;20027;-73
2023/07/08 08:28:16;;;;;;;3.97;2.70;;;;;;;28.46;36.96;100863.53;5117725;27;20489;-73
2023/07/08 08:30:42;;;;;;;3.75;2.75;;;;;;;28.57;36.90;100870.16;5121410;27;20059;-74
2023/07/08 08:33:07;;;;;;;6.45;3.15;;;;;;;28.66;36.82;100885.28;5120969;27;20031;-74
2023/07/08 08:35:33;;;;;;;5.55;2.97;;;;;;;28.65;37.14;100880.81;5119729;27;20120;-74
2023/07/08 08:37:58;;;;;;;5.15;2.95;;;;;;;28.57;36.25;100861.88;5124582;27;20079;-73
2023/07/08 08:40:24;;;;;;;2.95;2.60;;;;;;;28.74;36.17;100883.00;5120430;27;20019;-73
2023/07/08 08:43:00;;;;;;;3.22;2.67;;;;;;;28.80;36.40;100883.97;5121776;27;20023;-72
2023/07/08 08:45:28;;;;;;;3.33;2.70;;;;;;;28.94;36.93;100885.41;5109893;27;20085;-73
2023/07/08 08:48:00;;;;;;;6.13;3.22;;;;;;;28.99;36.18;100877.25;5123605;27;20087;-73
2023/07/08 08:50:28;;;;;;;5.07;2.88;;;;;;;28.93;36.31;100887.34;5118154;27;20501;-72
2023/07/08 08:52:55;;;;;;;5.07;2.70;;;;;;;28.98;36.04;100875.56;5119114;27;20102;-73
2023/07/08 08:55:25;;;;;;;6.75;3.00;;;;;;;29.01;36.47;100883.38;5118070;27;20102;-73
2023/07/08 08:57:57;;;;;;;3.95;2.80;;;;;;;28.97;36.37;100882.16;5120114;27;20490;-72
2023/07/08 09:00:45;;;;;;;4.38;2.92;;;;;;;29.01;35.87;100880.63;5119557;27;20027;-73
2023/07/08 09:03:18;;;;;;;5.13;3.05;;;;;;;29.02;36.15;100861.03;5115955;27;20038;-73
2023/07/08 09:05:45;;;;;;;6.50;2.83;;;;;;;29.24;35.07;100880.63;5116898;27;20027;-73
2023/07/08 09:08:26;;;;;;;8.25;3.40;;;;;;;29.25;35.01;100876.75;5113498;27;20038;-74
2023/07/08 09:10:59;;;;;;;5.05;2.45;;;;;;;29.22;34.90;100869.81;5131451;27;20035;-73
2023/07/08 09:13:32;;;;;;;3.83;2.78;;;;;;;29.12;34.02;100854.91;5134956;27;20023;-73
2023/07/08 09:16:05;;;;;;;3.17;2.45;;;;;;;29.14;34.14;100848.06;5129640;27;20111;-73
2023/07/08 09:18:36;;;;;;;;;;;;;;;29.16;34.22;100867.16;5130023;27;20028;-74
2023/07/08 09:21:15;;;;;;;3.35;2.47;;;;;;;29.22;34.34;100864.28;5144779;27;19903;-73
2023/07/08 09:23:44;;;;;;;4.72;2.65;;;;;;;29.40;33.33;100855.81;5136059;27;20010;-74
2023/07/08 09:26:16;;;;;;;5.88;2.85;;;;;;;29.26;34.13;100839.75;5132152;27;20015;-73
2023/07/08 09:28:46;;;;;;;4.28;2.80;;;;;;;29.45;33.74;100863.38;5137623;27;20027;-74
2023/07/08 09:31:42;;;;;;;5.95;2.83;;;;;;;29.44;33.52;100865.28;5132914;27;20056;-74
2023/07/08 09:34:16;;;;;;;5.10;2.83;;;;;;;29.38;33.40;100846.94;5130713;27;20098;-73
2023/07/08 09:36:46;;;;;;;4.63;2.60;;;;;;;29.44;32.44;100853.41;5134297;27;20044;-74
2023/07/08 09:39:17;;;;;;;3.38;2.80;;;;;;;29.42;32.80;100867.47;5135371;27;20045;-73
2023/07/08 09:41:45;;;;;;;3.97;2.60;;;;;;;29.43;33.17;100860.03;5143513;27;20022;-73
2023/07/08 09:44:23;;;;;;;4.40;2.80;;;;;;;29.49;32.89;100862.66;5131081;27;20023;-73
2023/07/08 09:46:49;;;;;;;3.30;2.83;;;;;;;29.42;33.01;100855.56;5145131;27;20051;-73
2023/07/08 09:49:23;;;;;;;3.53;2.50;;;;;;;29.51;32.87;100859.63;5142107;27;20225;-74
2023/07/08 09:51:52;;;;;;;3.42;2.50;;;;;;;29.48;32.54;100857.38;5131106;27;20012;-73
2023/07/08 09:54:20;;;;;;;4.00;2.88;;;;;;;29.48;32.78;100841.63;5132117;27;20019;-73
2023/07/08 09:56:54;;;;;;;5.65;2.97;;;;;;;29.58;33.21;100854.81;5131231;27;20465;-73
2023/07/08 09:59:23;;;;;;;5.18;2.97;;;;;;;29.64;32.98;100856.63;5119885;27;20416;-74
2023/07/08 10:01:49;;;;;;;9.02;2.83;;;;;;;29.61;32.92;100854.34;5114640;27;20023;-74
2023/07/08 10:04:17;;;;;;;6.55;2.85;;;;;;;29.57;33.13;100853.13;5114459;27;20040;-74
2023/07/08 10:06:46;;;;;;;4.70;2.97;;;;;;;29.45;32.74;100847.66;5109781;28;20036;-73
2023/07/08 10:09:18;;;;;;;4.45;2.90;;;;;;;29.39;33.30;100834.78;5111630;27;20078;-73
2023/07/08 10:12:08;;;;;;;4.22;3.03;;;;;;;29.54;32.55;100842.56;5111018;28;20084;-73
2023/07/08 10:14:39;;;;;;;2.53;2.15;;;;;;;29.64;32.17;100843.66;5109344;28;20058;-73
2023/07/08 10:17:05;;;;;;;2.42;2.15;;;;;;;29.66;32.94;100835.94;5115041;28;20447;-73
2023/07/08 10:19:30;;;;;;;3.38;2.53;;;;;;;29.67;32.86;100840.41;5111260;28;20027;-73
2023/07/08 10:22:17;;;;;;;6.80;3.17;;;;;;;29.69;32.78;100840.97;5113058;28;20480;-73
2023/07/08 10:25:03;;;;;;;5.20;3.17;;;;;;;29.62;32.96;100840.28;5107963;28;20546;-73
2023/07/08 10:27:31;;;;;;;4.90;2.65;;;;;;;29.59;32.75;100839.88;5115412;27;20088;-73
2023/07/08 10:30:06;;;;;;;3.60;2.65;;;;;;;29.63;32.28;100830.88;5113586;27;20040;-73
2023/07/08 10:32:52;;;;;;;4.25;2.60;;;;;;;29.65;32.25;100830.63;5114232;28;20499;-74
2023/07/08 10:35:27;;;;;;;7.55;3.25;;;;;;;29.43;32.75;100813.84;5115805;27;20485;-73
2023/07/08 10:38:11;;;;;;;3.65;3.00;;;;;;;29.37;32.71;100819.53;5121047;27;20109;-74
2023/07/08 10:40:36;;;;;;;6.03;3.20;;;;;;;29.44;32.98;100826.59;5115561;28;20380;-73
2023/07/08 10:43:01;;;;;;;5.75;2.78;;;;;;;29.48;33.18;100811.22;5116637;27;20111;-73
2023/07/08 10:45:34;;;;;;;6.30;3.22;;;;;;;29.51;32.99;100813.50;5110412;27;20037;-72
2023/07/08 10:48:18;;;;;;;6.80;3.08;;;;;;;29.51;33.18;100826.47;5117696;28;20027;-72
2023/07/08 10:50:56;;;;;;;5.22;2.90;;;;;;;29.63;32.81;100819.81;5107411;28;20049;-72
2023/07/08 10:53:36;;;;;;;3.40;2.80;;;;;;;29.69;33.17;100818.03;5120965;27;20035;-73
2023/07/08 10:56:11;;;;;;;6.50;3.05;;;;;;;29.72;32.90;100801.75;5115326;27;20062;-74
2023/07/08 10:58:36;;;;;;;4.63;2.85;;;;;;;29.75;32.60;100817.00;5121460;27;20031;-73
2023/07/08 11:01:16;;;;;;;4.10;2.60;;;;;;;29.76;32.72;100813.19;5122104;27;20023;-73
2023/07/08 11:04:02;;;;;;;3.63;2.70;;;;;;;29.79;32.82;100815.44;5119455;27;20378;-73
2023/07/08 11:06:46;;;;;;;4.60;2.38;;;;;;;29.79;32.67;100798.84;5121701;27;20031;-73
2023/07/08 11:09:20;;;;;;;5.15;3.00;;;;;;;29.89;32.34;100808.16;5122382;27;20095;-74
2023/07/08 11:11:51;;;;;;;5.45;2.70;;;;;;;29.81;32.76;100793.88;5116635;27;20102;-73
2023/07/08 11:14:39;;;;;;;6.80;3.30;;;;;;;29.81;32.86;100797.50;5119995;27;20028;-74
2023/07/08 11:17:24;;;;;;;3.25;2.95;;;;;;;29.85;32.45;100797.84;5122889;27;20027;-73
2023/07/08 11:20:13;;;;;;;4.93;3.33;;;;;;;29.71;32.60;100775.19;5121791;27;20035;-74
2023/07/08 11:22:52;;;;;;;8.40;3.00;;;;;;;29.81;32.98;100782.81;5113612;27;20065;-74
2023/07/08 11:25:20;;;;;;;6.88;2.95;;;;;;;29.93;33.11;100802.97;5121168;27;20035;-73
2023/07/08 11:27:51;;;;;;;5.53;2.33;;;;;;;29.85;32.87;100787.63;5119174;27;20077;-73
2023/07/08 11:30:21;;;;;;;6.03;3.00;;;;;;;29.84;33.09;100785.09;5120214;27;20027;-73